createdAt,value
2023-02-11T00:00:29.121Z,-1.04
2023-02-11T00:01:36.201Z,-0.93
2023-02-11T00:02:23.493Z,-0.95
2023-02-11T00:03:12.146Z,-0.95
2023-02-11T00:04:06.281Z,-1.01
2023-02-11T00:04:50.743Z,-0.96
2023-02-11T00:05:35.130Z,-0.97
2023-02-11T00:06:28.285Z,-1.03
2023-02-11T00:07:13.947Z,-1.22
2023-02-11T00:07:55.582Z,-1.06
2023-02-11T00:08:48.125Z,-1.10
2023-02-11T00:09:36.318Z,-1.14
2023-02-11T00:10:17.968Z,-1.31
2023-02-11T00:10:59.645Z,-1.34
2023-02-11T00:11:59.011Z,-1.37
2023-02-11T00:12:48.675Z,-1.22
2023-02-11T00:13:33.563Z,-1.20
2023-02-11T00:14:19.325Z,-1.20
2023-02-11T00:15:07.811Z,-1.19
2023-02-11T00:16:00.198Z,-1.21
2023-02-11T00:16:44.628Z,-1.28
2023-02-11T00:17:28.718Z,-1.38
2023-02-11T00:18:11.557Z,-1.20
2023-02-11T00:18:56.127Z,-1.22
2023-02-11T00:19:54.908Z,-1.21
2023-02-11T00:20:41.124Z,-1.33
2023-02-11T00:21:29.593Z,-1.31
2023-02-11T00:22:11.244Z,-1.21
2023-02-11T00:22:54.044Z,-1.22
2023-02-11T00:23:40.465Z,-1.35
2023-02-11T00:24:31.257Z,-1.12
2023-02-11T00:25:16.581Z,-1.12
2023-02-11T00:26:01.274Z,-1.10
2023-02-11T00:26:43.003Z,-1.21
2023-02-11T00:27:29.953Z,-1.20
2023-02-11T00:28:26.283Z,-1.19
2023-02-11T00:29:25.600Z,-0.99
2023-02-11T00:30:16.538Z,-0.94
2023-02-11T00:31:06.791Z,-1.19
2023-02-11T00:31:54.775Z,-0.92
2023-02-11T00:32:42.620Z,-0.90
2023-02-11T00:33:27.562Z,-0.94
2023-02-11T00:34:15.187Z,-0.88
2023-02-11T00:34:59.654Z,-0.93
2023-02-11T00:35:53.546Z,-0.76
2023-02-11T00:36:36.563Z,-0.75
2023-02-11T00:37:20.006Z,-0.70
2023-02-11T00:38:14.556Z,-0.86
2023-02-11T00:39:01.077Z,-0.65
2023-02-11T00:39:56.751Z,-0.64
2023-02-11T00:40:40.679Z,-0.63
2023-02-11T00:41:26.110Z,-0.66
2023-02-11T00:42:37.890Z,-0.67
2023-02-11T00:43:25.462Z,-0.80
2023-02-11T00:44:10.433Z,-0.63
2023-02-11T00:45:06.422Z,-0.67
2023-02-11T00:45:58.360Z,-0.75
2023-02-11T00:46:43.171Z,-0.64
2023-02-11T00:47:26.727Z,-0.72
2023-02-11T00:48:17.279Z,-0.68
2023-02-11T00:49:08.923Z,-0.65
2023-02-11T00:49:52.804Z,-0.63
2023-02-11T00:50:36.755Z,-0.62
2023-02-11T00:51:29.468Z,-0.63
2023-02-11T00:52:32.295Z,-0.59
2023-02-11T00:53:14.181Z,-0.55
2023-02-11T00:53:58.621Z,-0.51
2023-02-11T00:54:45.881Z,-0.48
2023-02-11T00:55:47.907Z,-0.44
2023-02-11T00:56:41.542Z,-0.42
2023-02-11T00:57:23.233Z,-0.48
2023-02-11T00:58:13.780Z,-0.42
2023-02-11T00:58:57.735Z,-0.58
2023-02-11T00:59:40.206Z,-0.53
2023-02-11T01:00:22.203Z,-0.33
2023-02-11T01:01:06.527Z,-0.36
2023-02-11T01:01:56.850Z,-0.44
2023-02-11T01:02:45.565Z,-0.28
2023-02-11T01:03:30.434Z,-0.24
2023-02-11T01:04:23.688Z,-0.29
2023-02-11T01:05:10.261Z,-0.27
2023-02-11T01:05:56.795Z,-0.21
2023-02-11T01:06:56.532Z,-0.24
2023-02-11T01:07:40.487Z,-0.27
2023-02-11T01:08:22.814Z,-0.14
2023-02-11T01:09:13.553Z,-0.14
2023-02-11T01:09:58.003Z,-0.17
2023-02-11T01:10:44.005Z,-0.13
2023-02-11T01:11:29.016Z,-0.25
2023-02-11T01:12:16.263Z,-0.26
2023-02-11T01:12:59.309Z,-0.28
2023-02-11T01:13:48.402Z,-0.08
2023-02-11T01:14:37.599Z,-0.14
2023-02-11T01:15:22.424Z,-0.04
2023-02-11T01:16:09.908Z,-0.02
2023-02-11T01:17:05.140Z,-0.19
2023-02-11T01:17:52.599Z,-0.11
2023-02-11T01:18:38.009Z,0.06
2023-02-11T01:19:22.247Z,0.06
2023-02-11T01:20:09.051Z,0.16
2023-02-11T01:20:54.705Z,0.03
2023-02-11T01:21:42.935Z,0.12
2023-02-11T01:22:27.438Z,0.24
2023-02-11T01:23:15.035Z,0.14
2023-02-11T01:24:03.096Z,0.23
2023-02-11T01:24:47.784Z,0.10
2023-02-11T01:25:34.295Z,0.27
2023-02-11T01:26:22.109Z,0.27
2023-02-11T01:27:12.531Z,0.23
2023-02-11T01:27:57.034Z,0.27
2023-02-11T01:28:38.919Z,0.29
2023-02-11T01:29:23.014Z,0.18
2023-02-11T01:30:12.252Z,0.28
2023-02-11T01:31:05.207Z,0.07
2023-02-11T01:31:48.285Z,0.17
2023-02-11T01:32:31.193Z,0.27
2023-02-11T01:33:19.576Z,0.25
2023-02-11T01:34:05.916Z,0.28
2023-02-11T01:34:47.620Z,0.09
2023-02-11T01:35:40.454Z,0.31
2023-02-11T01:36:32.201Z,0.21
2023-02-11T01:37:18.193Z,0.29
2023-02-11T01:38:02.237Z,0.29
2023-02-11T01:38:46.964Z,0.34
2023-02-11T01:39:33.903Z,0.38
2023-02-11T01:40:22.405Z,0.38
2023-02-11T01:41:07.348Z,0.39
2023-02-11T01:41:53.735Z,0.38
2023-02-11T01:42:51.153Z,0.39
2023-02-11T01:43:55.323Z,0.32
2023-02-11T01:44:43.854Z,0.41
2023-02-11T01:45:53.097Z,0.45
2023-02-11T01:46:37.059Z,0.46
2023-02-11T01:47:25.016Z,0.40
2023-02-11T01:48:13.488Z,0.49
2023-02-11T01:49:04.225Z,0.49
2023-02-11T01:50:03.497Z,0.26
2023-02-11T01:50:57.536Z,0.51
2023-02-11T01:51:51.427Z,0.51
2023-02-11T01:52:39.195Z,0.51
2023-02-11T01:53:44.142Z,0.50
2023-02-11T01:54:50.404Z,0.48
2023-02-11T01:55:57.483Z,0.50
2023-02-11T01:57:08.666Z,0.40
2023-02-11T01:57:59.088Z,0.50
2023-02-11T01:58:55.245Z,0.39
2023-02-11T02:00:06.408Z,0.38
2023-02-11T02:01:10.522Z,0.61
2023-02-11T02:02:22.363Z,0.64
2023-02-11T02:03:24.276Z,0.68
2023-02-11T02:04:09.836Z,0.68
2023-02-11T02:05:17.601Z,0.76
2023-02-11T02:06:15.277Z,0.81
2023-02-11T02:07:17.594Z,0.85
2023-02-11T02:08:19.065Z,0.86
2023-02-11T02:09:11.424Z,0.86
2023-02-11T02:10:14.933Z,0.73
2023-02-11T02:10:58.407Z,0.83
2023-02-11T02:11:42.980Z,0.75
2023-02-11T02:12:24.689Z,0.84
2023-02-11T02:13:08.203Z,0.71
2023-02-11T02:13:52.473Z,0.69
2023-02-11T02:14:41.717Z,0.77
2023-02-11T02:15:36.705Z,0.92
2023-02-11T02:16:21.637Z,0.83
2023-02-11T02:17:07.234Z,0.86
2023-02-11T02:18:12.818Z,0.82
2023-02-11T02:19:18.572Z,0.93
2023-02-11T02:20:48.902Z,0.93
2023-02-11T02:21:53.092Z,0.95
2023-02-11T02:23:02.538Z,0.90
2023-02-11T02:24:06.208Z,0.89
2023-02-11T02:25:02.803Z,0.91
2023-02-11T02:26:05.448Z,0.96
2023-02-11T02:27:01.733Z,0.99
2023-02-11T02:28:17.705Z,1.04
2023-02-11T02:29:40.287Z,1.11
2023-02-11T02:30:50.086Z,1.15
2023-02-11T02:31:44.545Z,1.17
2023-02-11T02:33:22.286Z,1.12
2023-02-11T02:34:15.052Z,1.02
2023-02-11T02:35:25.647Z,0.92
2023-02-11T02:36:37.412Z,0.61
2023-02-11T02:37:36.137Z,0.92
2023-02-11T02:38:23.771Z,0.94
2023-02-11T02:39:24.241Z,0.97
2023-02-11T02:40:12.908Z,0.87
2023-02-11T02:41:19.196Z,1.03
2023-02-11T02:42:01.718Z,0.94
2023-02-11T02:42:49.785Z,1.10
2023-02-11T02:43:55.254Z,1.02
2023-02-11T02:44:44.158Z,0.88
2023-02-11T02:45:28.960Z,0.96
2023-02-11T02:46:19.327Z,1.07
2023-02-11T02:47:03.686Z,1.11
2023-02-11T02:47:47.974Z,1.12
2023-02-11T02:48:40.303Z,1.15
2023-02-11T02:49:24.781Z,1.06
2023-02-11T02:50:10.945Z,1.18
2023-02-11T02:51:24.567Z,1.17
2023-02-11T02:52:26.415Z,1.15
2023-02-11T02:53:37.285Z,0.99
2023-02-11T02:54:31.154Z,1.23
2023-02-11T02:55:31.149Z,1.21
2023-02-11T02:56:26.047Z,1.10
2023-02-11T02:57:33.654Z,1.19
2023-02-11T02:58:25.195Z,1.20
2023-02-11T02:59:21.909Z,1.20
2023-02-11T03:00:19.444Z,1.08
2023-02-11T03:01:09.762Z,1.21
2023-02-11T03:02:10.890Z,1.28
2023-02-11T03:03:17.762Z,1.31
2023-02-11T03:04:36.336Z,1.30
2023-02-11T03:05:47.896Z,1.30
2023-02-11T03:07:04.064Z,1.31
2023-02-11T03:07:57.855Z,1.28
2023-02-11T03:08:54.223Z,1.26
2023-02-11T03:10:11.394Z,1.31
2023-02-11T03:11:01.053Z,1.18
2023-02-11T03:11:45.373Z,1.37
2023-02-11T03:12:38.709Z,1.24
2023-02-11T03:13:29.026Z,1.36
2023-02-11T03:14:18.502Z,1.33
2023-02-11T03:15:11.503Z,1.21
2023-02-11T03:16:02.793Z,1.26
2023-02-11T03:16:56.097Z,1.23
2023-02-11T03:17:48.568Z,1.11
2023-02-11T03:18:46.368Z,1.05
2023-02-11T03:19:39.702Z,1.19
2023-02-11T03:20:26.913Z,1.20
2023-02-11T03:21:21.095Z,1.24
2023-02-11T03:22:05.339Z,1.19
2023-02-11T03:22:58.122Z,1.30
2023-02-11T03:23:50.964Z,1.32
2023-02-11T03:24:51.305Z,1.22
2023-02-11T03:25:51.065Z,1.36
2023-02-11T03:26:41.365Z,1.24
2023-02-11T03:27:36.160Z,1.40
2023-02-11T03:28:27.142Z,1.40
2023-02-11T03:29:32.311Z,1.41
2023-02-11T03:30:25.023Z,1.40
2023-02-11T03:31:21.344Z,1.41
2023-02-11T03:32:35.680Z,1.36
2023-02-11T03:33:27.987Z,1.32
2023-02-11T03:34:40.676Z,1.31
2023-02-11T03:35:52.783Z,1.30
2023-02-11T03:37:02.492Z,1.37
2023-02-11T03:38:03.576Z,1.39
2023-02-11T03:38:59.254Z,1.40
2023-02-11T03:40:03.378Z,1.30
2023-02-11T03:40:56.314Z,1.42
2023-02-11T03:41:46.099Z,1.50
2023-02-11T03:42:41.315Z,1.51
2023-02-11T03:43:32.041Z,1.54
2023-02-11T03:44:49.938Z,1.48
2023-02-11T03:45:31.787Z,1.48
2023-02-11T03:46:19.491Z,1.44
2023-02-11T03:47:14.841Z,1.60
2023-02-11T03:48:18.122Z,1.63
2023-02-11T03:49:07.972Z,1.62
2023-02-11T03:49:55.011Z,1.67
2023-02-11T03:50:41.275Z,1.68
2023-02-11T03:51:30.602Z,1.68
2023-02-11T03:52:16.944Z,1.43
2023-02-11T03:53:04.318Z,1.56
2023-02-11T03:53:47.697Z,1.54
2023-02-11T03:54:32.820Z,1.55
2023-02-11T03:55:33.516Z,1.55
2023-02-11T03:56:24.289Z,1.37
2023-02-11T03:57:06.021Z,1.53
2023-02-11T03:57:58.299Z,1.47
2023-02-11T03:58:39.936Z,1.56
2023-02-11T03:59:29.805Z,1.58
2023-02-11T04:00:16.409Z,1.53
2023-02-11T04:01:06.333Z,1.57
2023-02-11T04:01:52.343Z,1.31
2023-02-11T04:02:41.132Z,1.66
2023-02-11T04:03:29.049Z,1.56
2023-02-11T04:04:10.868Z,1.66
2023-02-11T04:04:56.752Z,1.61
2023-02-11T04:05:48.893Z,1.56
2023-02-11T04:06:30.687Z,1.64
2023-02-11T04:07:19.786Z,1.42
2023-02-11T04:08:03.996Z,1.59
2023-02-11T04:08:51.153Z,1.59
2023-02-11T04:10:09.509Z,1.51
2023-02-11T04:11:00.796Z,1.58
2023-02-11T04:11:58.606Z,1.56
2023-02-11T04:12:50.484Z,1.63
2023-02-11T04:13:32.247Z,1.67
2023-02-11T04:14:22.174Z,1.65
2023-02-11T04:15:04.133Z,1.63
2023-02-11T04:15:47.850Z,1.67
2023-02-11T04:16:39.140Z,1.67
2023-02-11T04:17:29.205Z,1.67
2023-02-11T04:18:16.535Z,1.60
2023-02-11T04:19:07.926Z,1.74
2023-02-11T04:20:14.955Z,1.71
2023-02-11T04:20:59.122Z,1.72
2023-02-11T04:21:43.280Z,1.64
2023-02-11T04:22:25.020Z,1.68
2023-02-11T04:23:10.169Z,1.25
2023-02-11T04:23:51.908Z,1.77
2023-02-11T04:24:40.322Z,1.72
2023-02-11T04:25:21.989Z,1.74
2023-02-11T04:26:03.944Z,1.78
2023-02-11T04:26:54.981Z,1.80
2023-02-11T04:27:37.031Z,1.79
2023-02-11T04:28:24.125Z,1.66
2023-02-11T04:29:08.876Z,1.74
2023-02-11T04:29:57.226Z,1.72
2023-02-11T04:30:45.556Z,1.90
2023-02-11T04:31:30.152Z,1.88
2023-02-11T04:32:21.485Z,1.90
2023-02-11T04:33:18.814Z,1.77
2023-02-11T04:34:06.682Z,1.93
2023-02-11T04:34:54.816Z,1.76
2023-02-11T04:35:50.251Z,1.79
2023-02-11T04:36:36.023Z,1.97
2023-02-11T04:37:22.338Z,1.84
2023-02-11T04:38:05.420Z,2.00
2023-02-11T04:38:57.787Z,2.00
2023-02-11T04:39:42.209Z,1.99
2023-02-11T04:40:23.912Z,1.96
2023-02-11T04:41:08.555Z,1.95
2023-02-11T04:42:01.540Z,1.84
2023-02-11T04:42:51.888Z,1.93
2023-02-11T04:43:42.416Z,1.98
2023-02-11T04:44:26.706Z,1.97
2023-02-11T04:45:13.942Z,1.96
2023-02-11T04:46:01.530Z,1.96
2023-02-11T04:46:44.390Z,1.96
2023-02-11T04:47:26.110Z,1.92
2023-02-11T04:48:15.651Z,1.94
2023-02-11T04:49:04.809Z,2.00
2023-02-11T04:49:48.258Z,2.01
2023-02-11T04:50:33.801Z,1.94
2023-02-11T04:51:27.228Z,2.02
2023-02-11T04:52:26.336Z,2.05
2023-02-11T04:53:14.570Z,2.01
2023-02-11T04:53:57.705Z,1.93
2023-02-11T04:54:42.446Z,1.91
2023-02-11T04:55:30.286Z,2.08
2023-02-11T04:56:14.626Z,1.98
2023-02-11T04:57:03.052Z,2.08
2023-02-11T04:57:58.858Z,2.11
2023-02-11T04:58:47.698Z,2.11
2023-02-11T04:59:37.959Z,1.98
2023-02-11T05:00:30.689Z,2.21
2023-02-11T05:01:20.768Z,2.27
2023-02-11T05:02:05.106Z,2.21
2023-02-11T05:03:07.046Z,2.35
2023-02-11T05:03:55.962Z,2.31
2023-02-11T05:04:39.125Z,2.32
2023-02-11T05:05:36.398Z,2.42
2023-02-11T05:06:23.822Z,2.27
2023-02-11T05:07:10.042Z,2.42
2023-02-11T05:07:51.722Z,2.44
2023-02-11T05:08:48.873Z,2.39
2023-02-11T05:09:34.685Z,2.40
2023-02-11T05:10:24.662Z,2.28
2023-02-11T05:11:08.484Z,2.35
2023-02-11T05:11:58.963Z,2.43
2023-02-11T05:12:51.899Z,2.38
2023-02-11T05:13:37.218Z,2.34
2023-02-11T05:14:23.572Z,2.41
2023-02-11T05:15:14.400Z,2.43
2023-02-11T05:15:59.470Z,2.40
2023-02-11T05:16:45.204Z,2.48
2023-02-11T05:17:29.793Z,2.35
2023-02-11T05:18:17.978Z,2.48
2023-02-11T05:19:05.903Z,2.56
2023-02-11T05:19:47.543Z,2.55
2023-02-11T05:20:37.229Z,2.49
2023-02-11T05:21:38.721Z,2.46
2023-02-11T05:22:23.230Z,2.62
2023-02-11T05:23:07.672Z,2.51
2023-02-11T05:24:04.064Z,2.61
2023-02-11T05:24:54.578Z,2.62
2023-02-11T05:25:51.760Z,2.62
2023-02-11T05:26:44.584Z,2.41
2023-02-11T05:27:36.257Z,2.64
2023-02-11T05:28:19.109Z,2.66
2023-02-11T05:29:26.317Z,2.70
2023-02-11T05:31:10.189Z,2.68
2023-02-11T05:32:06.004Z,2.73
2023-02-11T05:33:02.530Z,2.58
2023-02-11T05:34:03.117Z,2.70
2023-02-11T05:34:50.075Z,2.67
2023-02-11T05:35:37.746Z,2.81
2023-02-11T05:36:20.397Z,2.82
2023-02-11T05:37:11.833Z,2.66
2023-02-11T05:38:04.367Z,2.74
2023-02-11T05:38:59.680Z,2.79
2023-02-11T05:39:50.378Z,2.79
2023-02-11T05:40:41.636Z,2.76
2023-02-11T05:41:27.557Z,2.63
2023-02-11T05:42:10.771Z,2.71
2023-02-11T05:42:54.148Z,2.67
2023-02-11T05:43:44.208Z,2.51
2023-02-11T05:44:32.535Z,2.53
2023-02-11T05:45:14.233Z,2.44
2023-02-11T05:45:55.993Z,2.52
2023-02-11T05:47:00.503Z,2.39
2023-02-11T05:47:44.492Z,2.46
2023-02-11T05:48:37.411Z,2.43
2023-02-11T05:49:28.132Z,2.42
2023-02-11T05:50:18.201Z,2.40
2023-02-11T05:51:05.692Z,2.40
2023-02-11T05:51:50.204Z,2.40
2023-02-11T05:52:38.089Z,2.30
2023-02-11T05:53:30.288Z,2.29
2023-02-11T05:54:16.725Z,2.37
2023-02-11T05:55:09.880Z,2.23
2023-02-11T05:55:51.892Z,2.35
2023-02-11T05:56:38.680Z,2.36
2023-02-11T05:57:26.568Z,2.18
2023-02-11T05:58:23.090Z,2.32
2023-02-11T05:59:21.061Z,2.22
2023-02-11T06:00:04.358Z,2.29
2023-02-11T06:00:54.519Z,2.26
2023-02-11T06:01:50.247Z,2.23
2023-02-11T06:02:43.338Z,2.07
2023-02-11T06:03:37.652Z,2.14
2023-02-11T06:04:30.494Z,2.07
2023-02-11T06:05:15.178Z,2.07
2023-02-11T06:05:59.424Z,2.03
2023-02-11T06:06:48.275Z,1.94
2023-02-11T06:07:32.980Z,1.92
2023-02-11T06:08:18.996Z,1.91
2023-02-11T06:09:04.368Z,1.89
2023-02-11T06:09:48.842Z,2.01
2023-02-11T06:11:02.772Z,2.02
2023-02-11T06:11:47.210Z,1.92
2023-02-11T06:12:28.828Z,2.00
2023-02-11T06:13:14.018Z,2.01
2023-02-11T06:13:55.760Z,2.05
2023-02-11T06:14:48.920Z,2.02
2023-02-11T06:15:40.536Z,2.06
2023-02-11T06:16:23.677Z,1.97
2023-02-11T06:17:11.701Z,2.07
2023-02-11T06:17:56.622Z,2.06
2023-02-11T06:18:50.519Z,2.06
2023-02-11T06:19:35.220Z,1.92
2023-02-11T06:20:21.416Z,1.98
2023-02-11T06:21:17.022Z,1.94
2023-02-11T06:22:13.284Z,2.07
2023-02-11T06:23:06.830Z,1.94
2023-02-11T06:24:05.683Z,2.11
2023-02-11T06:25:57.548Z,2.04
2023-02-11T06:26:42.699Z,2.04
2023-02-11T06:27:27.261Z,2.07
2023-02-11T06:28:14.164Z,2.15
2023-02-11T06:29:00.315Z,2.18
2023-02-11T06:29:55.730Z,2.16
2023-02-11T06:30:43.518Z,2.17
2023-02-11T06:31:30.378Z,2.00
2023-02-11T06:32:43.994Z,2.17
2023-02-11T06:33:29.372Z,2.12
2023-02-11T06:34:12.343Z,2.09
2023-02-11T06:34:56.866Z,2.15
2023-02-11T06:35:52.033Z,2.09
2023-02-11T06:36:36.511Z,2.12
2023-02-11T06:37:24.583Z,2.09
2023-02-11T06:38:17.122Z,1.95
2023-02-11T06:38:58.781Z,1.94
2023-02-11T06:40:00.161Z,2.10
2023-02-11T06:40:48.678Z,2.11
2023-02-11T06:41:33.027Z,2.11
2023-02-11T06:42:18.762Z,1.99
2023-02-11T06:43:14.808Z,2.12
2023-02-11T06:44:00.708Z,2.14
2023-02-11T06:44:49.947Z,1.77
2023-02-11T06:45:34.328Z,2.05
2023-02-11T06:46:38.018Z,2.17
2023-02-11T06:47:23.520Z,2.09
2023-02-11T06:48:05.830Z,2.05
2023-02-11T06:48:52.001Z,2.08
2023-02-11T06:49:39.031Z,2.15
2023-02-11T06:50:26.989Z,2.13
2023-02-11T06:51:11.244Z,2.12
2023-02-11T06:52:17.184Z,2.09
2023-02-11T06:53:02.639Z,1.90
2023-02-11T06:53:49.979Z,1.90
2023-02-11T06:54:34.630Z,1.83
2023-02-11T06:55:30.042Z,1.94
2023-02-11T06:56:36.753Z,1.78
2023-02-11T06:57:21.072Z,1.83
2023-02-11T06:58:05.110Z,1.79
2023-02-11T06:58:50.283Z,1.76
2023-02-11T06:59:33.205Z,1.59
2023-02-11T07:00:15.267Z,1.59
2023-02-11T07:01:09.195Z,1.72
2023-02-11T07:02:54.033Z,1.64
2023-02-11T07:03:39.082Z,1.52
2023-02-11T07:04:36.565Z,1.53
2023-02-11T07:05:21.514Z,1.55
2023-02-11T07:06:05.417Z,1.32
2023-02-11T07:06:51.770Z,1.41
2023-02-11T07:07:34.336Z,1.41
2023-02-11T07:08:21.788Z,1.30
2023-02-11T07:09:05.057Z,1.55
2023-02-11T07:09:46.797Z,1.38
2023-02-11T07:10:31.282Z,1.58
2023-02-11T07:11:24.680Z,1.59
2023-02-11T07:12:15.004Z,1.42
2023-02-11T07:12:59.459Z,1.41
2023-02-11T07:13:41.146Z,1.60
2023-02-11T07:14:24.654Z,1.61
2023-02-11T07:15:09.289Z,1.64
2023-02-11T07:15:55.543Z,1.54
2023-02-11T07:16:39.952Z,1.60
2023-02-11T07:17:28.345Z,1.68
2023-02-11T07:18:22.264Z,1.68
2023-02-11T07:19:06.570Z,1.68
2023-02-11T07:20:02.875Z,1.68
2023-02-11T07:20:49.256Z,1.82
2023-02-11T07:21:34.005Z,1.85
2023-02-11T07:22:18.602Z,1.76
2023-02-11T07:23:00.298Z,1.79
2023-02-11T07:23:46.293Z,1.92
2023-02-11T07:25:08.517Z,1.91
2023-02-11T07:25:54.778Z,1.95
2023-02-11T07:26:38.036Z,2.18
2023-02-11T07:27:23.662Z,2.19
2023-02-11T07:28:12.375Z,2.00
2023-02-11T07:28:56.982Z,1.92
2023-02-11T07:29:49.222Z,2.21
2023-02-11T07:30:46.142Z,2.22
2023-02-11T07:31:31.090Z,2.26
2023-02-11T07:32:13.863Z,2.28
2023-02-11T07:32:58.019Z,2.16
2023-02-11T07:33:45.947Z,2.32
2023-02-11T07:34:36.694Z,2.30
2023-02-11T07:35:30.375Z,2.32
2023-02-11T07:36:34.739Z,2.26
2023-02-11T07:37:21.598Z,2.17
2023-02-11T07:38:12.774Z,2.32
2023-02-11T07:39:03.043Z,2.32
2023-02-11T07:39:55.743Z,2.23
2023-02-11T07:40:40.214Z,2.31
2023-02-11T07:41:37.359Z,2.28
2023-02-11T07:42:31.559Z,2.27
2023-02-11T07:43:15.867Z,2.05
2023-02-11T07:44:02.833Z,2.07
2023-02-11T07:44:50.456Z,2.26
2023-02-11T07:45:33.793Z,2.28
2023-02-11T07:46:40.702Z,2.18
2023-02-11T07:47:45.861Z,2.33
2023-02-11T07:48:30.275Z,2.09
2023-02-11T07:49:15.010Z,2.36
2023-02-11T07:50:02.688Z,2.33
2023-02-11T07:50:55.096Z,2.39
2023-02-11T07:51:44.553Z,2.33
2023-02-11T07:52:34.315Z,2.45
2023-02-11T07:53:18.207Z,2.26
2023-02-11T07:54:05.478Z,2.44
2023-02-11T07:54:52.361Z,2.36
2023-02-11T07:55:45.983Z,2.34
2023-02-11T07:56:51.432Z,2.53
2023-02-11T07:57:33.115Z,2.57
2023-02-11T07:58:20.501Z,2.59
2023-02-11T07:59:05.062Z,2.61
2023-02-11T07:59:49.548Z,2.63
2023-02-11T08:00:34.280Z,2.65
2023-02-11T08:01:30.907Z,2.68
2023-02-11T08:02:16.501Z,2.68
2023-02-11T08:02:58.266Z,2.61
2023-02-11T08:03:44.049Z,2.62
2023-02-11T08:04:31.511Z,2.71
2023-02-11T08:05:17.152Z,2.62
2023-02-11T08:06:00.199Z,2.78
2023-02-11T08:06:44.385Z,2.79
2023-02-11T08:07:38.818Z,2.70
2023-02-11T08:08:41.942Z,2.84
2023-02-11T08:09:29.450Z,2.71
2023-02-11T08:10:13.235Z,2.80
2023-02-11T08:10:54.932Z,2.67
2023-02-11T08:11:59.950Z,2.85
2023-02-11T08:12:45.788Z,2.85
2023-02-11T08:13:33.510Z,2.80
2023-02-11T08:14:17.174Z,2.76
2023-02-11T08:15:12.264Z,2.87
2023-02-11T08:16:13.386Z,2.74
2023-02-11T08:17:02.206Z,2.86
2023-02-11T08:17:59.731Z,2.90
2023-02-11T08:18:41.359Z,2.79
2023-02-11T08:19:27.343Z,2.94
2023-02-11T08:20:19.704Z,2.85
2023-02-11T08:21:10.967Z,2.89
2023-02-11T08:22:05.477Z,2.84
2023-02-11T08:22:48.775Z,2.85
2023-02-11T08:23:30.450Z,2.97
2023-02-11T08:24:14.904Z,2.87
2023-02-11T08:25:00.234Z,2.95
2023-02-11T08:25:44.947Z,2.83
2023-02-11T08:26:29.347Z,2.75
2023-02-11T08:27:13.695Z,3.03
2023-02-11T08:28:08.175Z,3.01
2023-02-11T08:28:52.282Z,3.00
2023-02-11T08:29:34.058Z,2.95
2023-02-11T08:30:16.055Z,3.02
2023-02-11T08:31:13.366Z,2.91
2023-02-11T08:31:57.972Z,3.06
2023-02-11T08:32:44.542Z,3.10
2023-02-11T08:33:26.283Z,3.13
2023-02-11T08:34:08.497Z,3.00
2023-02-11T08:34:58.935Z,3.20
2023-02-11T08:35:41.404Z,3.23
2023-02-11T08:36:29.046Z,3.23
2023-02-11T08:37:17.661Z,3.22
2023-02-11T08:38:02.374Z,3.25
2023-02-11T08:38:51.115Z,3.11
2023-02-11T08:39:52.900Z,3.25
2023-02-11T08:40:37.244Z,3.22
2023-02-11T08:41:23.202Z,3.25
2023-02-11T08:42:13.280Z,3.40
2023-02-11T08:42:59.955Z,3.36
2023-02-11T08:43:54.167Z,3.36
2023-02-11T08:44:41.210Z,3.51
2023-02-11T08:45:27.093Z,3.44
2023-02-11T08:46:23.377Z,3.50
2023-02-11T08:47:10.778Z,3.51
2023-02-11T08:48:01.448Z,3.49
2023-02-11T08:48:47.132Z,3.41
2023-02-11T08:49:38.080Z,3.77
2023-02-11T08:50:24.163Z,3.75
2023-02-11T08:51:13.748Z,4.11
2023-02-11T08:51:56.352Z,4.30
2023-02-11T08:52:41.020Z,4.37
2023-02-11T08:53:34.642Z,4.64
2023-02-11T08:54:16.781Z,4.59
2023-02-11T08:55:13.027Z,4.74
2023-02-11T08:56:13.608Z,5.12
2023-02-11T08:57:07.807Z,5.07
2023-02-11T08:57:58.767Z,5.39
2023-02-11T08:58:41.174Z,5.33
2023-02-11T08:59:28.489Z,5.53
2023-02-11T09:00:28.539Z,5.50
2023-02-11T09:01:17.001Z,5.56
2023-02-11T09:02:03.906Z,5.56
2023-02-11T09:02:55.289Z,5.51
2023-02-11T09:03:48.361Z,5.40
2023-02-11T09:04:33.216Z,5.70
2023-02-11T09:05:27.985Z,5.68
2023-02-11T09:06:23.534Z,5.61
2023-02-11T09:07:25.546Z,5.66
2023-02-11T09:08:12.837Z,5.57
2023-02-11T09:08:57.687Z,5.76
2023-02-11T09:09:39.491Z,5.69
2023-02-11T09:10:39.425Z,5.61
2023-02-11T09:11:33.475Z,5.77
2023-02-11T09:12:38.096Z,5.75
2023-02-11T09:13:19.761Z,5.61
2023-02-11T09:14:04.612Z,5.71
2023-02-11T09:14:51.444Z,5.74
2023-02-11T09:15:39.365Z,5.83
2023-02-11T09:16:28.466Z,5.80
2023-02-11T09:17:14.529Z,5.61
2023-02-11T09:18:06.257Z,5.75
2023-02-11T09:18:50.883Z,5.97
2023-02-11T09:19:32.886Z,5.91
2023-02-11T09:20:21.525Z,6.07
2023-02-11T09:21:11.263Z,5.97
2023-02-11T09:21:55.088Z,6.09
2023-02-11T09:23:02.014Z,5.92
2023-02-11T09:23:51.100Z,5.91
2023-02-11T09:24:32.711Z,6.04
2023-02-11T09:25:30.832Z,5.95
2023-02-11T09:26:16.902Z,6.24
2023-02-11T09:27:00.844Z,6.32
2023-02-11T09:27:58.031Z,6.24
2023-02-11T09:28:43.168Z,6.32
2023-02-11T09:29:29.090Z,6.11
2023-02-11T09:30:11.659Z,6.16
2023-02-11T09:30:57.739Z,5.93
2023-02-11T09:31:40.912Z,5.90
2023-02-11T09:32:32.324Z,5.86
2023-02-11T09:33:38.549Z,6.04
2023-02-11T09:34:24.960Z,6.02
2023-02-11T09:35:22.970Z,6.15
2023-02-11T09:36:10.119Z,6.33
2023-02-11T09:36:53.240Z,5.94
2023-02-11T09:37:37.599Z,6.38
2023-02-11T09:38:22.002Z,6.31
2023-02-11T09:39:05.260Z,6.40
2023-02-11T09:39:48.692Z,6.45
2023-02-11T09:40:35.322Z,6.47
2023-02-11T09:41:28.865Z,6.65
2023-02-11T09:43:01.784Z,6.68
2023-02-11T09:43:51.454Z,6.56
2023-02-11T09:44:39.086Z,6.46
2023-02-11T09:45:33.955Z,6.40
2023-02-11T09:46:21.584Z,6.04
2023-02-11T09:47:26.190Z,6.01
2023-02-11T09:48:17.040Z,6.03
2023-02-11T09:49:02.876Z,5.94
2023-02-11T09:50:08.532Z,6.11
2023-02-11T09:51:02.360Z,6.28
2023-02-11T09:52:26.024Z,6.22
2023-02-11T09:53:17.537Z,6.18
2023-02-11T09:54:13.171Z,6.26
2023-02-11T09:55:13.606Z,6.30
2023-02-11T09:56:15.224Z,6.06
2023-02-11T09:57:12.293Z,6.10
2023-02-11T09:58:24.256Z,6.18
2023-02-11T09:59:16.438Z,6.19
2023-02-11T10:00:02.368Z,6.13
2023-02-11T10:01:33.928Z,6.22
2023-02-11T10:02:48.808Z,6.49
2023-02-11T10:04:14.228Z,6.67
2023-02-11T10:05:20.519Z,6.89
2023-02-11T10:06:21.674Z,6.96
2023-02-11T10:07:27.061Z,7.00
2023-02-11T10:08:46.060Z,7.27
2023-02-11T10:10:15.444Z,7.42
2023-02-11T10:11:30.885Z,7.73
2023-02-11T10:12:50.990Z,7.69
2023-02-11T10:13:50.445Z,7.68
2023-02-11T10:14:57.054Z,7.85
2023-02-11T10:15:53.129Z,8.06
2023-02-11T10:17:11.951Z,8.14
2023-02-11T10:18:35.143Z,8.25
2023-02-11T10:19:44.828Z,8.00
2023-02-11T10:21:12.273Z,8.33
2023-02-11T10:22:15.659Z,8.49
2023-02-11T10:23:24.781Z,8.51
2023-02-11T10:24:14.032Z,8.54
2023-02-11T10:25:27.927Z,8.81
2023-02-11T10:26:22.216Z,8.91
2023-02-11T10:27:38.174Z,8.95
2023-02-11T10:28:36.974Z,9.15
2023-02-11T10:29:30.638Z,9.05
2023-02-11T10:30:40.045Z,8.90
2023-02-11T10:31:36.014Z,8.42
2023-02-11T10:32:26.411Z,8.13
2023-02-11T10:33:28.161Z,7.89
2023-02-11T10:34:34.433Z,7.62
2023-02-11T10:35:36.400Z,7.55
2023-02-11T10:36:36.999Z,7.51
2023-02-11T10:37:25.846Z,7.52
2023-02-11T10:38:16.402Z,7.73
2023-02-11T10:39:12.983Z,7.81
2023-02-11T10:39:59.543Z,7.97
2023-02-11T10:40:43.872Z,7.90
2023-02-11T10:41:50.904Z,7.84
2023-02-11T10:42:37.020Z,7.55
2023-02-11T10:43:31.870Z,7.34
2023-02-11T10:44:28.768Z,7.18
2023-02-11T10:45:42.961Z,7.15
2023-02-11T10:46:40.240Z,7.14
2023-02-11T10:47:34.055Z,7.18
2023-02-11T10:48:40.165Z,7.32
2023-02-11T10:49:49.676Z,7.53
2023-02-11T10:50:37.943Z,7.66
2023-02-11T10:51:31.473Z,7.67
2023-02-11T10:52:24.591Z,7.70
2023-02-11T10:53:37.687Z,7.86
2023-02-11T10:54:24.326Z,7.96
2023-02-11T10:55:28.074Z,8.28
2023-02-11T10:56:35.248Z,8.42
2023-02-11T10:57:21.121Z,8.36
2023-02-11T10:58:03.505Z,8.62
2023-02-11T10:58:57.605Z,8.59
2023-02-11T10:59:42.139Z,8.60
2023-02-11T11:00:26.299Z,8.75
2023-02-11T11:01:24.245Z,8.66
2023-02-11T11:02:24.795Z,8.79
2023-02-11T11:03:18.589Z,8.88
2023-02-11T11:04:31.487Z,9.19
2023-02-11T11:05:23.790Z,9.22
2023-02-11T11:06:14.843Z,9.31
2023-02-11T11:07:01.062Z,9.52
2023-02-11T11:08:26.064Z,9.49
2023-02-11T11:09:54.284Z,9.04
2023-02-11T11:10:48.482Z,8.77
2023-02-11T11:11:58.600Z,9.01
2023-02-11T11:12:51.660Z,9.05
2023-02-11T11:13:39.310Z,8.86
2023-02-11T11:14:31.545Z,8.90
2023-02-11T11:15:19.851Z,9.23
2023-02-11T11:16:16.048Z,9.28
2023-02-11T11:16:57.733Z,9.67
2023-02-11T11:17:45.502Z,9.45
2023-02-11T11:18:39.877Z,9.62
2023-02-11T11:19:43.645Z,9.73
2023-02-11T11:20:36.242Z,9.77
2023-02-11T11:21:50.793Z,9.86
2023-02-11T11:22:36.845Z,9.65
2023-02-11T11:23:22.753Z,9.50
2023-02-11T11:24:26.740Z,9.77
2023-02-11T11:25:53.883Z,9.91
2023-02-11T11:26:52.869Z,9.89
2023-02-11T11:27:41.402Z,9.76
2023-02-11T11:28:45.526Z,9.56
2023-02-11T11:30:16.409Z,9.56